Time;durP1;ratioP1;P1;durP2;ratioP2;P2;SDS_P1;SDS_P2;PMS_P1;PMS_P2;Temp;Humidity;BMP_temperature;BMP_pressure;BME280_temperature;BME280_humidity;BME280_pressure;Samples;Min_cycle;Max_cycle;Signal;HPM_P1;HPM_P2
2023/06/24 00:02:13;;;;;;;12.10;6.72;;;;;;;;;;5094362;28;20044;-76
2023/06/24 00:04:39;;;;;;;9.95;7.15;;;;;;;;;;5094039;28;20074;-76
2023/06/24 00:07:06;;;;;;;10.38;7.38;;;;;;;;;;5094359;28;20517;-76
2023/06/24 00:09:32;;;;;;;9.25;7.18;;;;;;;;;;5094090;28;20048;-76
2023/06/24 00:11:59;;;;;;;10.10;7.28;;;;;;;;;;5076941;28;20044;-76
2023/06/24 00:14:28;;;;;;;12.15;7.50;;;;;;;;;;5094105;28;20044;-75
2023/06/24 00:16:56;;;;;;;11.43;7.88;;;;;;;;;;5094192;28;20032;-76
2023/06/24 00:19:23;;;;;;;13.30;8.40;;;;;;;;;;5093657;28;20040;-76
2023/06/24 00:21:53;;;;;;;11.85;8.10;;;;;;;;;;5093232;28;20286;-76
2023/06/24 00:24:20;;;;;;;12.30;7.63;;;;;;;;;;5094159;28;20449;-76
2023/06/24 00:26:49;;;;;;;11.57;7.55;;;;;;;;;;5093438;28;20071;-76
2023/06/24 00:29:15;;;;;;;13.45;7.95;;;;;;;;;;5076946;28;20123;-76
2023/06/24 00:31:41;;;;;;;12.13;8.20;;;;;;;;;;5093267;28;20036;-76
2023/06/24 00:34:08;;;;;;;10.98;7.30;;;;;;;;;;5093763;28;20036;-76
2023/06/24 00:36:38;;;;;;;11.82;7.57;;;;;;;;;;5093339;28;20040;-76
2023/06/24 00:39:05;;;;;;;10.65;7.97;;;;;;;;;;5093815;28;20051;-76
2023/06/24 00:41:31;;;;;;;12.32;8.45;;;;;;;;;;5093447;28;20035;-76
2023/06/24 00:43:58;;;;;;;10.23;7.75;;;;;;;;;;5093219;28;20059;-76
2023/06/24 00:46:25;;;;;;;9.55;7.60;;;;;;;;;;5093706;28;20552;-76
2023/06/24 00:48:57;;;;;;;11.40;7.90;;;;;;;;;;5075999;28;20044;-77
2023/06/24 00:51:30;;;;;;;9.50;6.70;;;;;;;;;;5093413;28;20067;-76
2023/06/24 00:54:00;;;;;;;10.32;6.82;;;;;;;;;;5093435;28;20425;-77
2023/06/24 00:56:31;;;;;;;9.63;6.97;;;;;;;;;;5076211;28;20047;-76
2023/06/24 00:59:01;;;;;;;10.50;6.80;;;;;;;;;;5093178;28;20042;-77
2023/06/24 01:01:32;;;;;;;9.90;7.57;;;;;;;;;;5076091;28;20048;-76
2023/06/24 01:03:58;;;;;;;8.80;6.80;;;;;;;;;;5076063;28;20040;-76
2023/06/24 01:06:29;;;;;;;9.63;7.30;;;;;;;;;;5093330;28;20481;-76
2023/06/24 01:08:59;;;;;;;10.50;8.00;;;;;;;;;;5092750;28;20044;-76
2023/06/24 01:11:26;;;;;;;10.80;7.40;;;;;;;;;;5092948;28;20051;-76
2023/06/24 01:13:52;;;;;;;9.10;7.30;;;;;;;;;;5092393;28;20032;-76
2023/06/24 01:16:29;;;;;;;12.70;7.80;;;;;;;;;;5076040;28;20044;-76
2023/06/24 01:19:00;;;;;;;13.32;7.78;;;;;;;;;;5075331;28;20036;-77
2023/06/24 01:21:29;;;;;;;10.52;8.30;;;;;;;;;;5075910;28;20051;-76
2023/06/24 01:24:04;;;;;;;12.65;7.55;;;;;;;;;;5075854;28;20044;-76
2023/06/24 01:26:49;;;;;;;12.93;8.70;;;;;;;;;;5079559;28;20039;-76
2023/06/24 01:29:34;;;;;;;11.85;8.40;;;;;;;;;;5092543;28;20050;-76
2023/06/24 01:32:03;;;;;;;12.50;9.02;;;;;;;;;;5092103;28;20044;-76
2023/06/24 01:34:32;;;;;;;12.90;8.90;;;;;;;;;;5092523;28;20079;-76
2023/06/24 01:37:17;;;;;;;9.65;7.63;;;;;;;;;;5092352;28;20105;-76
2023/06/24 01:39:48;;;;;;;10.98;8.07;;;;;;;;;;5092506;28;20079;-76
2023/06/24 01:42:16;;;;;;;9.85;7.72;;;;;;;;;;5092715;28;20507;-76
2023/06/24 01:44:43;;;;;;;10.13;8.07;;;;;;;;;;5091623;28;20058;-77
2023/06/24 01:47:10;;;;;;;12.77;8.45;;;;;;;;;;5091880;28;20071;-77
2023/06/24 01:49:40;;;;;;;9.98;7.78;;;;;;;;;;5091429;28;20082;-77
2023/06/24 01:52:08;;;;;;;12.60;7.82;;;;;;;;;;5075202;28;20043;-76
2023/06/24 01:54:34;;;;;;;11.18;8.05;;;;;;;;;;5092428;28;20036;-76
2023/06/24 01:57:03;;;;;;;12.25;7.88;;;;;;;;;;5092060;28;20537;-76
2023/06/24 01:59:29;;;;;;;10.80;7.88;;;;;;;;;;5091870;28;20048;-76
2023/06/24 02:01:56;;;;;;;12.80;9.15;;;;;;;;;;5085996;28;20102;-76
2023/06/24 02:04:23;;;;;;;13.35;8.82;;;;;;;;;;5091316;28;20040;-76
2023/06/24 02:06:50;;;;;;;14.18;8.45;;;;;;;;;;5090067;28;20115;-76
2023/06/24 02:09:17;;;;;;;11.50;8.40;;;;;;;;;;5091732;28;20051;-76
2023/06/24 02:11:44;;;;;;;12.13;9.05;;;;;;;;;;5077391;28;20036;-76
2023/06/24 02:14:11;;;;;;;11.05;8.25;;;;;;;;;;5091814;28;20071;-76
2023/06/24 02:16:37;;;;;;;12.07;8.70;;;;;;;;;;5093177;28;20036;-76
2023/06/24 02:19:04;;;;;;;12.00;8.90;;;;;;;;;;5091624;28;20571;-76
2023/06/24 02:21:31;;;;;;;13.82;8.80;;;;;;;;;;5091760;28;20061;-76
2023/06/24 02:23:57;;;;;;;13.82;8.40;;;;;;;;;;5091308;28;20043;-76
2023/06/24 02:26:25;;;;;;;13.80;8.63;;;;;;;;;;5075027;28;20492;-77
2023/06/24 02:28:52;;;;;;;12.43;8.70;;;;;;;;;;5091165;28;20048;-76
2023/06/24 02:31:18;;;;;;;14.18;9.07;;;;;;;;;;5091553;28;20040;-76
2023/06/24 02:33:45;;;;;;;10.60;8.65;;;;;;;;;;5091339;28;20040;-76
2023/06/24 02:36:11;;;;;;;14.20;9.00;;;;;;;;;;5091830;28;20362;-77
2023/06/24 02:38:37;;;;;;;12.43;7.90;;;;;;;;;;5091184;28;20044;-77
2023/06/24 02:41:04;;;;;;;12.60;8.52;;;;;;;;;;5091012;28;20040;-77
2023/06/24 02:43:31;;;;;;;11.77;8.75;;;;;;;;;;5073975;28;20106;-77
2023/06/24 02:45:58;;;;;;;13.63;8.95;;;;;;;;;;5091001;28;20048;-77
2023/06/24 02:48:25;;;;;;;12.25;9.38;;;;;;;;;;5074354;28;20377;-77
2023/06/24 02:50:52;;;;;;;12.18;9.32;;;;;;;;;;5091021;28;20492;-77
2023/06/24 02:53:18;;;;;;;13.35;9.57;;;;;;;;;;5074450;28;20542;-76
2023/06/24 02:55:44;;;;;;;13.35;9.27;;;;;;;;;;5090960;28;20048;-76
2023/06/24 02:58:10;;;;;;;13.85;10.23;;;;;;;;;;5090674;28;20051;-76
2023/06/24 03:00:37;;;;;;;14.23;10.32;;;;;;;;;;5091342;28;20044;-76
2023/06/24 03:03:04;;;;;;;15.75;10.52;;;;;;;;;;5090777;28;20120;-76
2023/06/24 03:05:31;;;;;;;18.45;11.18;;;;;;;;;;5091143;28;20047;-76
2023/06/24 03:07:57;;;;;;;19.13;11.65;;;;;;;;;;5073766;28;20051;-76
2023/06/24 03:10:24;;;;;;;17.80;12.73;;;;;;;;;;5091011;28;20123;-77
2023/06/24 03:12:50;;;;;;;19.52;12.98;;;;;;;;;;5090668;28;20493;-77
2023/06/24 03:15:16;;;;;;;18.80;12.48;;;;;;;;;;5090879;28;20074;-76
2023/06/24 03:17:42;;;;;;;21.67;13.75;;;;;;;;;;5090859;28;20043;-76
2023/06/24 03:20:09;;;;;;;18.35;13.13;;;;;;;;;;5093384;28;20123;-76
2023/06/24 03:22:35;;;;;;;18.58;13.63;;;;;;;;;;5095034;28;20047;-77
2023/06/24 03:25:01;;;;;;;18.60;13.70;;;;;;;;;;5080422;28;20048;-77
2023/06/24 03:27:27;;;;;;;20.02;13.68;;;;;;;;;;5095024;28;20047;-77
2023/06/24 03:29:53;;;;;;;18.45;13.15;;;;;;;;;;5094738;28;20431;-76
2023/06/24 03:32:19;;;;;;;17.45;12.80;;;;;;;;;;5095099;28;20078;-77
2023/06/24 03:34:46;;;;;;;20.35;14.65;;;;;;;;;;5077823;28;20043;-77
2023/06/24 03:37:12;;;;;;;19.58;13.13;;;;;;;;;;5078036;28;20489;-77
2023/06/24 03:39:38;;;;;;;17.90;13.45;;;;;;;;;;5094635;28;20143;-77
2023/06/24 03:42:04;;;;;;;22.48;14.77;;;;;;;;;;5094434;28;20048;-77
2023/06/24 03:44:30;;;;;;;21.45;14.23;;;;;;;;;;5077754;28;20139;-76
2023/06/24 03:46:56;;;;;;;22.98;14.63;;;;;;;;;;5094255;28;20052;-77
2023/06/24 03:49:23;;;;;;;22.15;14.60;;;;;;;;;;5094515;28;20040;-76
2023/06/24 03:51:49;;;;;;;20.77;13.73;;;;;;;;;;5095735;28;20047;-77
2023/06/24 03:54:15;;;;;;;20.15;13.88;;;;;;;;;;5094137;28;20403;-76
2023/06/24 03:56:41;;;;;;;22.17;15.27;;;;;;;;;;5094379;28;20075;-76
2023/06/24 03:59:08;;;;;;;21.33;14.30;;;;;;;;;;5093911;28;20048;-76
2023/06/24 04:01:34;;;;;;;23.52;13.85;;;;;;;;;;5069458;28;20119;-76
2023/06/24 04:04:00;;;;;;;18.90;13.63;;;;;;;;;;5088262;28;20056;-76
2023/06/24 04:06:26;;;;;;;20.85;14.60;;;;;;;;;;5093802;28;20081;-77
2023/06/24 04:08:52;;;;;;;18.70;13.85;;;;;;;;;;5094218;28;20032;-76
2023/06/24 04:11:18;;;;;;;18.92;13.68;;;;;;;;;;5066676;28;20040;-76
2023/06/24 04:13:45;;;;;;;19.90;14.05;;;;;;;;;;5095478;28;20067;-76
2023/06/24 04:16:11;;;;;;;20.58;14.23;;;;;;;;;;5093848;28;20119;-77
2023/06/24 04:18:39;;;;;;;17.42;13.25;;;;;;;;;;5094310;28;20483;-76
2023/06/24 04:21:08;;;;;;;19.02;12.65;;;;;;;;;;5093462;28;20043;-76
2023/06/24 04:23:35;;;;;;;19.85;12.95;;;;;;;;;;5093719;28;20044;-77
2023/06/24 04:26:01;;;;;;;16.83;12.95;;;;;;;;;;5093470;28;20044;-77
2023/06/24 04:28:27;;;;;;;17.70;12.45;;;;;;;;;;5093725;28;20040;-77
2023/06/24 04:30:55;;;;;;;18.80;12.52;;;;;;;;;;5093317;28;20031;-77
2023/06/24 04:33:21;;;;;;;18.70;13.32;;;;;;;;;;5093218;28;20040;-77
2023/06/24 04:35:47;;;;;;;19.08;13.13;;;;;;;;;;5077119;28;20548;-76
2023/06/24 04:38:18;;;;;;;17.85;12.68;;;;;;;;;;5093521;28;20424;-77
2023/06/24 04:40:44;;;;;;;18.48;13.07;;;;;;;;;;5061975;28;20400;-76
2023/06/24 04:43:10;;;;;;;15.70;12.15;;;;;;;;;;5105560;28;20073;-76
2023/06/24 04:45:36;;;;;;;15.95;11.75;;;;;;;;;;5093270;28;20090;-76
2023/06/24 04:48:02;;;;;;;15.68;12.32;;;;;;;;;;5076581;28;20494;-77
2023/06/24 04:50:28;;;;;;;15.07;11.52;;;;;;;;;;5093557;28;20365;-77
2023/06/24 04:52:54;;;;;;;18.15;12.98;;;;;;;;;;5093428;28;20085;-77
2023/06/24 04:55:22;;;;;;;13.55;11.30;;;;;;;;;;5092834;28;20040;-77
2023/06/24 04:57:48;;;;;;;16.10;12.35;;;;;;;;;;5093255;28;20145;-77
2023/06/24 05:00:14;;;;;;;17.15;12.32;;;;;;;;;;5092891;28;20074;-77
2023/06/24 05:02:40;;;;;;;14.05;11.73;;;;;;;;;;5093327;28;20052;-77
2023/06/24 05:05:06;;;;;;;14.45;12.02;;;;;;;;;;5059354;28;20040;-77
2023/06/24 05:07:32;;;;;;;15.00;11.43;;;;;;;;;;5093258;28;20044;-77
2023/06/24 05:09:59;;;;;;;13.02;10.63;;;;;;;;;;5076393;28;20035;-76
2023/06/24 05:12:25;;;;;;;13.75;11.50;;;;;;;;;;5092737;28;20071;-77
2023/06/24 05:14:52;;;;;;;13.93;11.48;;;;;;;;;;5093087;28;20032;-77
2023/06/24 05:17:18;;;;;;;15.48;11.43;;;;;;;;;;5075950;28;20073;-77
2023/06/24 05:19:44;;;;;;;16.65;11.75;;;;;;;;;;5092945;28;20042;-77
2023/06/24 05:22:10;;;;;;;13.95;11.02;;;;;;;;;;5058869;28;20040;-77
2023/06/24 05:24:37;;;;;;;13.70;10.95;;;;;;;;;;5092670;28;20044;-77
2023/06/24 05:27:07;;;;;;;14.80;10.10;;;;;;;;;;5092619;28;20047;-77
2023/06/24 05:29:33;;;;;;;15.48;10.27;;;;;;;;;;5092633;28;20040;-78
2023/06/24 05:31:59;;;;;;;13.27;10.68;;;;;;;;;;5076053;28;20492;-77
2023/06/24 05:34:25;;;;;;;14.40;10.38;;;;;;;;;;5092175;28;20047;-77
2023/06/24 05:36:51;;;;;;;15.65;10.77;;;;;;;;;;5075717;28;20397;-77
2023/06/24 05:39:18;;;;;;;15.02;10.88;;;;;;;;;;5092542;28;20423;-77
2023/06/24 05:41:44;;;;;;;14.05;10.35;;;;;;;;;;5074773;28;20040;-77
2023/06/24 05:44:10;;;;;;;10.82;9.68;;;;;;;;;;5091784;28;20067;-76
2023/06/24 05:46:37;;;;;;;14.20;10.85;;;;;;;;;;5092287;28;20044;-77
2023/06/24 05:49:03;;;;;;;12.05;9.43;;;;;;;;;;5092266;28;20068;-77
2023/06/24 05:51:29;;;;;;;12.20;9.85;;;;;;;;;;5093247;28;20051;-77
2023/06/24 05:53:55;;;;;;;12.07;9.90;;;;;;;;;;5075510;28;20435;-76
2023/06/24 05:56:22;;;;;;;11.75;9.40;;;;;;;;;;5074902;28;20123;-77
2023/06/24 05:58:48;;;;;;;14.55;9.77;;;;;;;;;;5092304;28;20083;-76
2023/06/24 06:01:15;;;;;;;11.63;9.20;;;;;;;;;;5091639;28;20093;-77
2023/06/24 06:03:41;;;;;;;12.65;9.38;;;;;;;;;;5092078;28;20043;-77
2023/06/24 06:06:07;;;;;;;9.77;8.52;;;;;;;;;;5091800;28;20047;-77
2023/06/24 06:08:33;;;;;;;11.85;8.88;;;;;;;;;;5091708;28;20044;-76
2023/06/24 06:11:02;;;;;;;11.15;9.43;;;;;;;;;;5091699;28;20040;-75
2023/06/24 06:13:28;;;;;;;12.32;9.30;;;;;;;;;;5074839;28;20389;-76
2023/06/24 06:15:54;;;;;;;11.38;8.95;;;;;;;;;;5091868;28;20484;-76
2023/06/24 06:18:20;;;;;;;11.13;9.02;;;;;;;;;;5091566;28;20456;-77
2023/06/24 06:20:46;;;;;;;9.10;7.88;;;;;;;;;;5074919;28;20051;-76
2023/06/24 06:23:12;;;;;;;10.15;7.53;;;;;;;;;;5091301;28;20040;-75
2023/06/24 06:25:39;;;;;;;10.25;7.82;;;;;;;;;;5092832;28;20114;-76
2023/06/24 06:28:05;;;;;;;8.57;7.32;;;;;;;;;;5091285;28;20133;-76
2023/06/24 06:30:31;;;;;;;8.32;7.43;;;;;;;;;;5091185;28;20040;-76
2023/06/24 06:32:58;;;;;;;7.88;7.07;;;;;;;;;;5091273;28;20048;-76
2023/06/24 06:35:24;;;;;;;9.85;7.63;;;;;;;;;;5091074;28;20044;-75
2023/06/24 06:37:54;;;;;;;9.52;7.18;;;;;;;;;;5091371;28;20052;-76
2023/06/24 06:40:23;;;;;;;7.47;6.38;;;;;;;;;;5092380;28;20067;-75
2023/06/24 06:42:50;;;;;;;9.02;6.75;;;;;;;;;;5091222;28;20079;-75
2023/06/24 06:45:16;;;;;;;8.93;6.82;;;;;;;;;;5090580;28;20044;-75
2023/06/24 06:47:42;;;;;;;8.82;6.25;;;;;;;;;;5091533;28;20067;-75
2023/06/24 06:50:08;;;;;;;8.63;6.30;;;;;;;;;;5091272;28;20439;-75
2023/06/24 06:52:34;;;;;;;7.53;6.35;;;;;;;;;;5090778;28;20043;-75
2023/06/24 06:55:00;;;;;;;6.70;5.90;;;;;;;;;;5074188;28;20126;-75
2023/06/24 06:57:27;;;;;;;7.00;5.53;;;;;;;;;;5092032;28;20031;-74
2023/06/24 06:59:53;;;;;;;7.57;6.03;;;;;;;;;;5091495;28;20054;-75
2023/06/24 07:02:20;;;;;;;10.98;5.35;;;;;;;;;;5090947;28;20051;-76
2023/06/24 07:04:47;;;;;;;6.38;5.47;;;;;;;;;;5092459;28;20484;-76
2023/06/24 07:07:13;;;;;;;7.10;5.28;;;;;;;;;;5091599;28;20659;-76
2023/06/24 07:09:40;;;;;;;7.95;4.47;;;;;;;;;;5090460;28;20485;-75
2023/06/24 07:12:06;;;;;;;7.80;4.60;;;;;;;;;;5090898;28;20040;-75
2023/06/24 07:14:32;;;;;;;7.15;4.32;;;;;;;;;;5090335;28;20038;-75
2023/06/24 07:16:59;;;;;;;6.65;4.82;;;;;;;;;;5090825;28;20044;-75
2023/06/24 07:19:25;;;;;;;7.28;4.97;;;;;;;;;;5090702;28;20374;-75
2023/06/24 07:21:52;;;;;;;5.95;4.65;;;;;;;;;;5090886;28;20036;-75
2023/06/24 07:24:18;;;;;;;7.40;4.68;;;;;;;;;;5090697;28;20036;-75
2023/06/24 07:26:44;;;;;;;6.25;4.63;;;;;;;;;;5076241;28;20048;-75
2023/06/24 07:29:10;;;;;;;8.73;4.93;;;;;;;;;;5090781;28;20079;-75
2023/06/24 07:31:36;;;;;;;6.32;4.90;;;;;;;;;;5090524;28;20033;-75
2023/06/24 07:34:02;;;;;;;11.77;5.20;;;;;;;;;;5090764;28;20036;-75
2023/06/24 07:36:28;;;;;;;6.93;4.47;;;;;;;;;;5090504;28;20126;-75
2023/06/24 07:38:54;;;;;;;5.70;4.60;;;;;;;;;;5074077;28;20393;-76
2023/06/24 07:41:21;;;;;;;9.05;4.70;;;;;;;;;;5090633;28;20055;-76
2023/06/24 07:43:47;;;;;;;10.65;5.20;;;;;;;;;;5089949;28;20058;-75
2023/06/24 07:46:13;;;;;;;7.05;4.90;;;;;;;;;;5073780;28;20048;-76
2023/06/24 07:48:39;;;;;;;6.53;4.40;;;;;;;;;;5091249;28;20047;-75
2023/06/24 07:51:05;;;;;;;5.85;4.43;;;;;;;;;;5091870;28;20047;-75
2023/06/24 07:53:33;;;;;;;11.55;4.30;;;;;;;;;;5090030;28;20067;-75
2023/06/24 07:55:59;;;;;;;7.65;4.68;;;;;;;;;;5090632;28;20477;-75
2023/06/24 07:58:25;;;;;;;5.82;3.88;;;;;;;;;;5090074;28;20044;-75
2023/06/24 08:00:51;;;;;;;11.43;4.93;;;;;;;;;;5090396;28;20123;-75
2023/06/24 08:03:17;;;;;;;6.43;4.97;;;;;;;;;;5073855;28;20520;-76
2023/06/24 08:05:43;;;;;;;7.80;4.60;;;;;;;;;;5091993;28;20468;-75
2023/06/24 08:08:09;;;;;;;8.25;4.30;;;;;;;;;;5094159;28;20055;-75
2023/06/24 08:10:36;;;;;;;7.07;3.95;;;;;;;;;;5093878;28;20044;-76
2023/06/24 08:13:02;;;;;;;8.27;4.10;;;;;;;;;;5094128;28;20396;-75
2023/06/24 08:15:28;;;;;;;5.55;3.28;;;;;;;;;;5076829;28;20079;-76
2023/06/24 08:17:54;;;;;;;6.35;3.58;;;;;;;;;;5095229;28;20040;-75
2023/06/24 08:20:24;;;;;;;5.75;3.40;;;;;;;;;;5095449;28;20424;-75
2023/06/24 08:22:50;;;;;;;4.80;2.85;;;;;;;;;;5093381;28;20080;-75
2023/06/24 08:25:16;;;;;;;3.35;2.72;;;;;;;;;;5093943;28;20106;-73
2023/06/24 08:27:46;;;;;;;5.63;3.17;;;;;;;;;;5093141;28;20117;-76
2023/06/24 08:30:13;;;;;;;4.38;2.80;;;;;;;;;;5094724;28;20047;-75
2023/06/24 08:32:40;;;;;;;5.05;3.60;;;;;;;;;;5076578;28;20036;-75
2023/06/24 08:35:06;;;;;;;6.65;3.72;;;;;;;;;;5093795;28;20521;-75
2023/06/24 08:37:32;;;;;;;8.82;3.88;;;;;;;;;;5094582;28;20040;-76
2023/06/24 08:39:59;;;;;;;5.20;3.63;;;;;;;;;;5093719;28;20401;-75
2023/06/24 08:42:25;;;;;;;6.75;3.13;;;;;;;;;;5093569;28;20032;-75
2023/06/24 08:44:51;;;;;;;6.32;3.42;;;;;;;;;;5092942;28;20052;-75
2023/06/24 08:47:17;;;;;;;5.70;3.47;;;;;;;;;;5093532;28;20115;-75
2023/06/24 08:49:55;;;;;;;5.30;4.05;;;;;;;;;;5093144;28;20046;-76
2023/06/24 08:52:22;;;;;;;7.70;3.78;;;;;;;;;;5080256;28;20040;-75
2023/06/24 08:54:52;;;;;;;8.43;4.57;;;;;;;;;;5093137;28;20093;-75
2023/06/24 08:57:18;;;;;;;8.35;4.18;;;;;;;;;;5076479;28;20036;-75
2023/06/24 08:59:44;;;;;;;5.53;3.90;;;;;;;;;;5093120;28;20051;-75
2023/06/24 09:02:13;;;;;;;12.93;3.63;;;;;;;;;;5093500;28;20476;-75
2023/06/24 09:04:40;;;;;;;6.13;4.32;;;;;;;;;;5094126;28;20032;-75
2023/06/24 09:07:06;;;;;;;5.10;3.80;;;;;;;;;;5076455;28;20583;-75
2023/06/24 09:09:32;;;;;;;6.60;4.15;;;;;;;;;;5092821;28;20055;-75
2023/06/24 09:11:59;;;;;;;6.82;4.53;;;;;;;;;;5093036;28;20119;-75
2023/06/24 09:14:26;;;;;;;8.93;4.95;;;;;;;;;;5092859;28;20106;-75
2023/06/24 09:17:01;;;;;;;7.10;5.00;;;;;;;;;;5091219;28;20032;-75
2023/06/24 09:19:32;;;;;;;6.03;4.82;;;;;;;;;;5092992;28;20040;-74
2023/06/24 09:22:05;;;;;;;7.07;4.68;;;;;;;;;;5093132;28;20071;-75
2023/06/24 09:24:32;;;;;;;6.95;4.68;;;;;;;;;;5092844;28;20511;-75
2023/06/24 09:26:58;;;;;;;8.18;5.03;;;;;;;;;;5093517;28;20416;-74
2023/06/24 09:29:28;;;;;;;6.68;4.50;;;;;;;;;;5092661;28;20050;-74
2023/06/24 09:31:56;;;;;;;6.97;4.30;;;;;;;;;;5092265;28;20039;-74
2023/06/24 09:34:23;;;;;;;6.97;4.35;;;;;;;;;;5075830;28;20480;-74
2023/06/24 09:36:53;;;;;;;7.75;4.80;;;;;;;;;;5091882;28;20031;-75
2023/06/24 09:39:21;;;;;;;6.85;4.88;;;;;;;;;;5092727;28;20048;-75
2023/06/24 09:41:51;;;;;;;6.45;4.38;;;;;;;;;;5093328;28;20097;-74
2023/06/24 09:44:19;;;;;;;6.57;4.35;;;;;;;;;;5093411;28;20059;-74
2023/06/24 09:46:45;;;;;;;6.28;4.28;;;;;;;;;;5091909;28;20528;-75
2023/06/24 09:49:11;;;;;;;5.90;4.38;;;;;;;;;;5092094;28;20044;-74
2023/06/24 09:51:44;;;;;;;6.82;4.90;;;;;;;;;;5075459;28;20496;-75
2023/06/24 09:54:12;;;;;;;5.78;4.68;;;;;;;;;;5092375;28;20562;-75
2023/06/24 09:56:39;;;;;;;7.40;4.32;;;;;;;;;;5092235;28;20485;-74
2023/06/24 09:59:06;;;;;;;10.82;4.30;;;;;;;;;;5075032;28;20048;-74
2023/06/24 10:01:44;;;;;;;6.68;4.68;;;;;;;;;;5092096;28;20092;-74
2023/06/24 10:04:14;;;;;;;15.57;5.72;;;;;;;;;;5092149;28;20466;-74
2023/06/24 10:06:41;;;;;;;6.65;4.53;;;;;;;;;;5091810;28;20074;-75
2023/06/24 10:09:07;;;;;;;7.10;4.30;;;;;;;;;;5091732;28;20100;-74
2023/06/24 10:11:33;;;;;;;9.70;4.55;;;;;;;;;;5092999;28;20028;-74
2023/06/24 10:13:59;;;;;;;9.73;4.63;;;;;;;;;;5074840;28;20040;-74
2023/06/24 10:16:25;;;;;;;6.97;4.10;;;;;;;;;;5069954;28;20051;-74
2023/06/24 10:18:51;;;;;;;8.50;4.65;;;;;;;;;;5083892;28;20047;-74
2023/06/24 10:21:17;;;;;;;9.05;4.80;;;;;;;;;;5091871;28;20488;-74
2023/06/24 10:23:50;;;;;;;8.65;4.60;;;;;;;;;;5091333;28;20051;-74
2023/06/24 10:26:36;;;;;;;17.85;4.75;;;;;;;;;;5091710;28;20404;-74
2023/06/24 10:29:10;;;;;;;6.38;4.22;;;;;;;;;;5090638;28;20124;-74
2023/06/24 10:31:57;;;;;;;9.32;4.47;;;;;;;;;;5092788;28;20115;-73
2023/06/24 10:34:23;;;;;;;6.63;4.15;;;;;;;;;;5092648;28;20036;-74
2023/06/24 10:36:55;;;;;;;10.15;5.18;;;;;;;;;;5092095;28;20037;-74
2023/06/24 10:39:40;;;;;;;10.82;6.30;;;;;;;;;;5091614;28;20044;-75
2023/06/24 10:42:25;;;;;;;10.38;4.88;;;;;;;;;;5077350;28;20206;-74
2023/06/24 10:44:51;;;;;;;21.10;4.55;;;;;;;;;;5090444;28;20052;-74
2023/06/24 10:47:18;;;;;;;8.40;4.40;;;;;;;;;;5091131;28;20130;-75
2023/06/24 10:49:44;;;;;;;7.25;3.88;;;;;;;;;;5091146;28;20048;-74
2023/06/24 10:52:10;;;;;;;7.45;3.60;;;;;;;;;;5090570;28;20043;-74
2023/06/24 10:54:40;;;;;;;8.23;3.25;;;;;;;;;;5091218;28;20075;-74
2023/06/24 10:57:10;;;;;;;14.00;4.05;;;;;;;;;;5090456;28;20313;-73
2023/06/24 10:59:36;;;;;;;5.65;3.42;;;;;;;;;;5091250;28;20086;-75
2023/06/24 11:02:02;;;;;;;6.35;3.83;;;;;;;;;;5074160;28;20097;-76
2023/06/24 11:04:29;;;;;;;5.90;3.72;;;;;;;;;;5091251;28;20032;-76
2023/06/24 11:06:59;;;;;;;5.25;3.55;;;;;;;;;;5090738;28;20113;-75
2023/06/24 11:09:25;;;;;;;5.97;3.97;;;;;;;;;;5074105;28;20040;-76
2023/06/24 11:11:52;;;;;;;5.50;3.58;;;;;;;;;;5090731;28;20098;-76
2023/06/24 11:14:18;;;;;;;4.65;3.50;;;;;;;;;;5091043;28;20115;-76
2023/06/24 11:16:46;;;;;;;6.75;3.30;;;;;;;;;;5091389;28;20392;-76
2023/06/24 11:19:12;;;;;;;8.25;3.60;;;;;;;;;;5090550;28;20079;-75
2023/06/24 11:21:38;;;;;;;8.30;3.55;;;;;;;;;;5074455;28;20439;-75
2023/06/24 11:24:05;;;;;;;5.32;3.58;;;;;;;;;;5091761;28;20127;-75
2023/06/24 11:26:31;;;;;;;7.60;3.45;;;;;;;;;;5090859;28;20123;-75
2023/06/24 11:28:57;;;;;;;8.45;3.72;;;;;;;;;;5090618;28;20452;-75
2023/06/24 11:31:26;;;;;;;6.50;3.88;;;;;;;;;;5090793;28;20047;-75
2023/06/24 11:33:52;;;;;;;7.47;3.63;;;;;;;;;;5090935;28;20515;-76
2023/06/24 11:36:19;;;;;;;8.48;3.65;;;;;;;;;;5090733;28;20032;-76
2023/06/24 11:38:49;;;;;;;6.07;3.47;;;;;;;;;;5090981;28;20080;-75
2023/06/24 11:41:15;;;;;;;8.07;3.58;;;;;;;;;;5093179;28;20174;-75
2023/06/24 11:43:47;;;;;;;5.82;3.00;;;;;;;;;;5094565;28;20048;-74
2023/06/24 11:46:36;;;;;;;6.25;3.50;;;;;;;;;;5077356;28;20475;-75
2023/06/24 11:49:06;;;;;;;5.50;3.25;;;;;;;;;;5081684;28;20044;-76
2023/06/24 11:51:32;;;;;;;6.05;3.15;;;;;;;;;;5094625;28;20043;-75
2023/06/24 11:54:05;;;;;;;12.48;3.67;;;;;;;;;;5094358;28;20039;-75
2023/06/24 11:56:38;;;;;;;12.80;3.38;;;;;;;;;;5094676;28;20488;-74
2023/06/24 11:59:08;;;;;;;6.28;2.90;;;;;;;;;;5077353;28;20481;-75
2023/06/24 12:01:37;;;;;;;4.30;2.65;;;;;;;;;;5094832;28;20366;-75
2023/06/24 12:04:30;;;;;;;6.32;3.10;;;;;;;;;;5094346;28;20069;-75
2023/06/24 12:06:56;;;;;;;4.88;2.92;;;;;;;;;;5091308;28;20108;-75
2023/06/24 12:09:22;;;;;;;5.40;2.95;;;;;;;;;;5094140;28;20392;-75
2023/06/24 12:11:48;;;;;;;4.50;2.90;;;;;;;;;;5077311;28;20028;-73
2023/06/24 12:14:15;;;;;;;7.63;3.00;;;;;;;;;;5095130;28;20481;-73
2023/06/24 12:16:41;;;;;;;3.70;3.08;;;;;;;;;;5094128;28;20036;-73
2023/06/24 12:19:07;;;;;;;6.80;3.20;;;;;;;;;;5093613;28;20043;-76
2023/06/24 12:21:34;;;;;;;4.57;3.10;;;;;;;;;;5093823;28;20040;-75
2023/06/24 12:24:00;;;;;;;7.13;3.05;;;;;;;;;;5093756;28;20127;-76
2023/06/24 12:26:26;;;;;;;4.70;2.88;;;;;;;;;;5094057;28;20121;-76
2023/06/24 12:28:56;;;;;;;5.40;3.10;;;;;;;;;;5093888;28;20039;-75
2023/06/24 12:31:22;;;;;;;7.07;3.10;;;;;;;;;;5093564;28;20032;-75
2023/06/24 12:33:48;;;;;;;5.57;3.58;;;;;;;;;;5093979;28;20085;-77
2023/06/24 12:36:14;;;;;;;4.45;2.78;;;;;;;;;;5094685;28;20036;-77
2023/06/24 12:38:41;;;;;;;8.15;2.97;;;;;;;;;;5094873;28;20042;-76
2023/06/24 12:41:07;;;;;;;6.97;2.88;;;;;;;;;;5093382;28;20093;-76
2023/06/24 12:43:33;;;;;;;5.28;3.28;;;;;;;;;;5093508;28;20036;-74
2023/06/24 12:45:59;;;;;;;6.13;3.88;;;;;;;;;;5093435;28;20059;-77
2023/06/24 12:48:26;;;;;;;5.45;3.25;;;;;;;;;;5093252;28;20044;-76
2023/06/24 12:50:55;;;;;;;5.30;3.45;;;;;;;;;;5094548;28;20037;-75
2023/06/24 12:53:21;;;;;;;12.65;3.75;;;;;;;;;;5093281;28;20515;-74
2023/06/24 12:55:47;;;;;;;5.65;3.60;;;;;;;;;;5076545;28;20040;-76
2023/06/24 12:58:14;;;;;;;6.97;3.83;;;;;;;;;;5092800;28;20044;-75
2023/06/24 13:00:41;;;;;;;7.68;3.97;;;;;;;;;;5094469;28;20083;-74
2023/06/24 13:03:07;;;;;;;5.80;3.55;;;;;;;;;;5093027;28;20496;-75
2023/06/24 13:05:33;;;;;;;7.15;4.28;;;;;;;;;;5094546;28;20036;-75
2023/06/24 13:07:59;;;;;;;8.15;3.28;;;;;;;;;;5092996;28;20127;-74
2023/06/24 13:10:25;;;;;;;8.18;5.20;;;;;;;;;;5092771;28;20044;-76
2023/06/24 13:12:52;;;;;;;6.30;4.47;;;;;;;;;;5076337;28;20396;-74
2023/06/24 13:15:18;;;;;;;7.72;4.00;;;;;;;;;;5092826;28;20050;-75
2023/06/24 13:17:44;;;;;;;6.80;3.78;;;;;;;;;;5078755;28;20070;-76
2023/06/24 13:20:10;;;;;;;6.10;3.95;;;;;;;;;;5092470;28;20044;-75
2023/06/24 13:22:36;;;;;;;6.60;3.72;;;;;;;;;;5076078;28;20437;-75
2023/06/24 13:25:03;;;;;;;6.53;3.78;;;;;;;;;;5094166;28;20396;-75
2023/06/24 13:27:29;;;;;;;13.35;4.53;;;;;;;;;;5092470;28;20127;-75
2023/06/24 13:29:55;;;;;;;9.27;4.00;;;;;;;;;;5092488;28;20036;-75
2023/06/24 13:32:21;;;;;;;6.38;3.88;;;;;;;;;;5092646;28;20342;-76
2023/06/24 13:34:48;;;;;;;6.97;3.55;;;;;;;;;;5093978;28;20044;-76
2023/06/24 13:37:14;;;;;;;6.47;3.90;;;;;;;;;;5092372;28;20047;-75
2023/06/24 13:39:40;;;;;;;5.72;3.85;;;;;;;;;;5075455;28;20051;-76
2023/06/24 13:42:06;;;;;;;6.35;4.00;;;;;;;;;;5093762;28;20032;-75
2023/06/24 13:44:32;;;;;;;7.80;4.00;;;;;;;;;;5092242;28;20040;-77
2023/06/24 13:46:58;;;;;;;7.78;3.83;;;;;;;;;;5092337;28;20037;-75
2023/06/24 13:49:25;;;;;;;6.15;4.10;;;;;;;;;;5092175;28;20545;-75
2023/06/24 13:51:51;;;;;;;7.57;4.93;;;;;;;;;;5093737;28;20047;-75
2023/06/24 13:54:18;;;;;;;6.38;4.60;;;;;;;;;;5091901;28;20119;-76
2023/06/24 13:56:44;;;;;;;7.65;4.60;;;;;;;;;;5092282;28;20035;-75
2023/06/24 13:59:10;;;;;;;8.10;4.97;;;;;;;;;;5091526;28;20047;-75
2023/06/24 14:01:36;;;;;;;9.93;4.38;;;;;;;;;;5092409;28;20474;-76
2023/06/24 14:04:02;;;;;;;10.02;4.15;;;;;;;;;;5092636;28;20075;-75
2023/06/24 14:06:28;;;;;;;9.60;4.93;;;;;;;;;;5091783;28;20059;-76
2023/06/24 14:08:55;;;;;;;13.98;4.95;;;;;;;;;;5092091;28;20485;-75
2023/06/24 14:11:21;;;;;;;10.18;4.07;;;;;;;;;;5092877;28;20036;-75
2023/06/24 14:13:47;;;;;;;10.40;4.90;;;;;;;;;;5092073;28;20036;-75
2023/06/24 14:16:13;;;;;;;9.15;4.20;;;;;;;;;;5091828;28;20611;-75
2023/06/24 14:18:39;;;;;;;5.80;4.28;;;;;;;;;;5091845;28;20047;-76
2023/06/24 14:21:06;;;;;;;10.25;4.95;;;;;;;;;;5092867;28;20044;-75
2023/06/24 14:23:33;;;;;;;5.43;3.85;;;;;;;;;;5091414;28;20132;-75
2023/06/24 14:26:00;;;;;;;22.50;4.60;;;;;;;;;;5074937;28;20118;-76
2023/06/24 14:28:26;;;;;;;6.88;3.70;;;;;;;;;;5077391;28;20484;-77
2023/06/24 14:30:52;;;;;;;9.75;4.35;;;;;;;;;;5092910;28;20101;-75
2023/06/24 14:33:18;;;;;;;7.72;4.22;;;;;;;;;;5091348;28;20530;-74
2023/06/24 14:35:45;;;;;;;9.15;4.30;;;;;;;;;;5091752;28;20036;-74